Time;durP1;ratioP1;P1;durP2;ratioP2;P2;SDS_P1;SDS_P2;PMS_P1;PMS_P2;Temp;Humidity;BMP_temperature;BMP_pressure;BME280_temperature;BME280_humidity;BME280_pressure;Samples;Min_cycle;Max_cycle;Signal;HPM_P1;HPM_P2
2021/08/14 00:00:18;;;;;;;14.07;2.75;;;15.50;99.90;;;14.35;90.53;101783.16;5031093;28;20025;-76
2021/08/14 00:02:46;;;;;;;16.63;3.03;;;15.50;99.90;;;14.34;90.56;101801.78;5032532;28;20035;-76
2021/08/14 00:05:12;;;;;;;20.38;2.92;;;15.50;99.90;;;14.38;90.23;101810.47;5030876;28;20040;-77
2021/08/14 00:07:39;;;;;;;16.05;3.17;;;15.40;99.90;;;14.32;90.52;101771.88;5032627;28;20477;-78
2021/08/14 00:10:06;;;;;;;18.85;2.47;;;15.50;99.90;;;14.39;89.98;101780.41;5031013;28;20036;-77
2021/08/14 00:12:32;;;;;;;18.38;3.15;;;15.40;99.90;;;14.27;90.59;101755.31;5047514;28;20037;-77
2021/08/14 00:14:58;;;;;;;12.68;2.60;;;15.40;99.90;;;14.29;90.58;101774.66;5015309;28;20416;-77
2021/08/14 00:17:24;;;;;;;21.75;3.78;;;15.40;99.90;;;14.30;90.64;101786.97;5006994;28;20110;-77
2021/08/14 00:19:50;;;;;;;15.38;3.10;;;15.40;99.90;;;14.25;91.36;101799.56;5015557;28;20032;-77
2021/08/14 00:22:16;;;;;;;23.38;3.83;;;15.40;99.90;;;14.19;92.10;101885.47;5024318;28;20033;-77
2021/08/14 00:24:42;;;;;;;16.38;3.50;;;15.30;99.90;;;14.09;92.98;101810.84;5030973;28;20017;-77
2021/08/14 00:27:08;;;;;;;14.07;2.88;;;15.30;99.90;;;14.04;93.99;101806.66;5016204;28;20052;-77
2021/08/14 00:29:34;;;;;;;16.42;3.10;;;15.20;99.90;;;13.97;94.22;101789.31;5029765;28;20154;-76
2021/08/14 00:31:59;;;;;;;14.35;3.08;;;15.10;99.90;;;13.94;95.37;101806.22;5031603;28;20072;-78
2021/08/14 00:34:26;;;;;;;18.95;3.15;;;15.10;99.90;;;13.93;95.78;101786.81;5030982;28;20064;-77
2021/08/14 00:36:51;;;;;;;26.35;3.33;;;15.10;99.90;;;13.91;96.18;101822.25;5031230;28;20017;-77
2021/08/14 00:39:17;;;;;;;9.82;2.88;;;15.10;99.90;;;13.87;96.66;101825.94;5031931;28;20014;-77
2021/08/14 00:41:43;;;;;;;20.08;3.05;;;15.00;99.90;;;13.81;96.67;101842.94;5029518;28;20113;-77
2021/08/14 00:44:09;;;;;;;17.33;3.38;;;14.90;99.90;;;13.74;96.86;101807.94;5034489;28;20461;-78
2021/08/14 00:46:37;;;;;;;20.40;3.28;;;14.90;99.90;;;13.74;97.08;101815.03;5015352;28;20056;-78
2021/08/14 00:49:03;;;;;;;30.88;3.80;;;14.80;99.90;;;13.67;97.12;101806.47;5030900;28;20029;-76
2021/08/14 00:51:29;;;;;;;12.93;2.20;;;14.80;99.90;;;13.68;97.55;101794.09;5031329;28;20032;-77
2021/08/14 00:53:55;;;;;;;21.45;3.00;;;14.80;99.90;;;13.63;97.65;101781.06;5030246;28;20103;-79
2021/08/14 00:56:24;;;;;;;14.50;3.10;;;14.70;99.90;;;13.54;98.21;101831.72;5031791;28;20029;-77
2021/08/14 00:58:52;;;;;;;21.13;3.67;;;14.60;99.90;;;13.46;98.79;101820.59;5028528;28;20366;-77
2021/08/14 01:01:23;;;;;;;19.50;3.00;;;14.60;99.90;;;13.41;98.98;101860.47;5033594;28;20041;-77
2021/08/14 01:03:54;;;;;;;21.42;3.42;;;14.50;99.90;;;13.34;98.85;101954.22;5031310;28;20021;-77
2021/08/14 01:06:21;;;;;;;24.58;3.00;;;14.40;99.90;;;13.32;98.68;101904.00;5014695;28;20060;-75
2021/08/14 01:08:48;;;;;;;16.42;3.03;;;14.50;99.90;;;13.31;99.47;101933.19;5031315;28;20029;-76
2021/08/14 01:11:14;;;;;;;23.83;3.85;;;14.40;99.90;;;13.25;99.46;101897.22;5014320;28;20036;-75
2021/08/14 01:13:42;;;;;;;17.20;3.67;;;14.40;99.90;;;13.22;99.52;101915.00;5048456;28;20029;-75
2021/08/14 01:16:09;;;;;;;18.95;3.22;;;14.40;99.90;;;13.19;99.35;101901.88;5020659;28;20033;-76
2021/08/14 01:18:47;;;;;;;17.30;2.80;;;14.30;99.90;;;13.17;99.60;101912.50;5030250;28;20024;-75
2021/08/14 01:21:24;;;;;;;17.80;3.20;;;14.30;99.90;;;13.12;99.40;101886.25;5029922;28;20029;-75
2021/08/14 01:23:54;;;;;;;19.40;3.30;;;14.30;99.90;;;13.10;99.66;101881.94;5014788;28;20033;-76
2021/08/14 01:26:21;;;;;;;19.35;3.00;;;14.20;99.90;;;13.05;99.40;101955.31;5032593;28;20048;-76
2021/08/14 01:28:48;;;;;;;30.88;3.13;;;14.20;99.90;;;13.06;99.85;101949.09;4996850;28;20559;-76
2021/08/14 01:31:17;;;;;;;19.40;3.72;;;14.20;99.90;;;13.07;98.93;101917.31;5030201;28;20032;-76
2021/08/14 01:33:44;;;;;;;27.35;3.08;;;14.20;99.90;;;13.05;99.16;102024.06;5031039;28;20037;-76
2021/08/14 01:36:14;;;;;;;22.98;3.00;;;14.20;99.90;;;13.02;98.82;101928.97;5013138;28;20063;-77
2021/08/14 01:38:55;;;;;;;22.75;3.50;;;14.20;99.90;;;13.01;98.91;101930.75;5031535;28;20037;-76
2021/08/14 01:41:23;;;;;;;32.88;3.83;;;14.20;99.90;;;12.98;99.06;101930.00;5030238;28;20025;-76
2021/08/14 01:43:56;;;;;;;22.90;3.03;;;14.10;99.90;;;12.96;98.91;101924.78;5047587;28;20094;-75
2021/08/14 01:46:24;;;;;;;13.90;2.53;;;14.10;99.90;;;12.91;98.99;101908.22;5022317;28;20045;-76
2021/08/14 01:48:50;;;;;;;29.20;3.33;;;14.10;99.90;;;12.86;99.68;101958.63;5032602;28;20025;-76
2021/08/14 01:51:16;;;;;;;22.55;3.35;;;14.00;99.90;;;12.83;99.88;102022.19;5028329;28;20044;-76
2021/08/14 01:53:54;;;;;;;20.80;2.95;;;13.90;99.90;;;12.77;99.95;101966.88;5031129;28;20029;-76
2021/08/14 01:56:21;;;;;;;19.50;3.45;;;13.90;99.90;;;12.76;100.00;102025.09;5045428;28;20053;-76
2021/08/14 01:58:48;;;;;;;20.98;3.05;;;13.90;99.90;;;12.66;100.00;102083.53;5030023;28;20060;-75
2021/08/14 02:01:15;;;;;;;17.35;3.05;;;13.80;99.90;;;12.62;100.00;102075.78;5012877;28;20028;-75
2021/08/14 02:03:42;;;;;;;22.60;3.38;;;13.70;99.90;;;12.56;100.00;102119.09;5029188;28;20021;-75
2021/08/14 02:06:09;;;;;;;18.50;3.63;;;13.70;99.90;;;12.52;100.00;102077.84;5028832;28;20033;-76
2021/08/14 02:08:37;;;;;;;23.95;4.00;;;13.70;99.90;;;12.50;100.00;102120.19;5030712;28;20041;-75
2021/08/14 02:11:19;;;;;;;17.10;4.00;;;13.70;99.90;;;12.56;100.00;102042.47;5045394;28;20047;-76
2021/08/14 02:13:48;;;;;;;21.60;4.05;;;13.80;99.90;;;12.58;100.00;102101.44;5045085;28;20025;-77
2021/08/14 02:16:15;;;;;;;17.38;3.65;;;13.80;99.90;;;12.57;100.00;102155.19;5030061;28;20082;-76
2021/08/14 02:18:41;;;;;;;29.42;4.38;;;13.70;99.90;;;12.58;100.00;102167.47;5029215;28;20078;-75
2021/08/14 02:21:08;;;;;;;19.80;4.03;;;13.70;99.90;;;12.54;100.00;102144.72;5029272;28;20366;-76
2021/08/14 02:23:36;;;;;;;22.70;3.53;;;13.70;99.90;;;12.54;100.00;102183.50;5029854;28;20033;-75
2021/08/14 02:26:04;;;;;;;13.70;3.30;;;13.70;99.90;;;12.51;100.00;102230.22;5019726;28;20041;-76
2021/08/14 02:28:30;;;;;;;17.25;3.63;;;13.70;99.90;;;12.50;100.00;102178.31;5027961;28;20044;-76
2021/08/14 02:30:58;;;;;;;18.25;3.28;;;13.60;99.90;;;12.44;100.00;102263.03;5032353;28;20041;-76
2021/08/14 02:33:24;;;;;;;22.25;3.42;;;13.60;99.90;;;12.41;100.00;102218.19;5013352;28;20033;-76
2021/08/14 02:35:52;;;;;;;31.02;4.00;;;13.50;99.90;;;12.34;100.00;102192.91;5029531;28;20447;-75
2021/08/14 02:38:18;;;;;;;21.48;3.65;;;13.50;99.90;;;12.29;100.00;102219.44;5029719;28;20029;-76
2021/08/14 02:40:48;;;;;;;17.30;4.22;;;13.50;99.90;;;12.26;100.00;102243.28;5031532;28;20032;-75
2021/08/14 02:43:16;;;;;;;17.23;3.20;;;13.50;99.90;;;12.26;100.00;102208.97;5029402;28;20416;-75
2021/08/14 02:45:43;;;;;;;16.88;3.70;;;13.50;99.90;;;12.30;100.00;102278.41;5033578;28;20037;-75
2021/08/14 02:48:10;;;;;;;24.75;3.70;;;13.50;99.90;;;12.30;100.00;102281.06;5031988;28;20055;-76
2021/08/14 02:50:39;;;;;;;24.48;4.65;;;13.50;99.90;;;12.29;100.00;102280.19;5034457;28;20140;-76
2021/08/14 02:53:04;;;;;;;23.30;3.47;;;13.50;99.90;;;12.24;100.00;102295.28;5046388;28;20087;-76
2021/08/14 02:55:30;;;;;;;28.90;4.05;;;13.40;99.90;;;12.25;100.00;102309.38;5021176;28;20045;-76
2021/08/14 02:57:56;;;;;;;22.42;3.20;;;13.40;99.90;;;12.20;100.00;102342.97;5032718;28;20021;-75
2021/08/14 03:00:22;;;;;;;21.55;3.35;;;13.40;99.90;;;12.22;100.00;102312.97;5033788;28;20017;-77
2021/08/14 03:02:48;;;;;;;19.38;3.80;;;13.40;99.90;;;12.17;100.00;102353.63;5048512;28;20033;-76
2021/08/14 03:05:14;;;;;;;36.88;4.28;;;13.30;99.90;;;12.17;100.00;102396.72;5020367;28;20064;-76
2021/08/14 03:07:40;;;;;;;21.15;3.60;;;13.30;99.90;;;12.13;100.00;102363.38;5062922;28;20489;-75
2021/08/14 03:10:07;;;;;;;21.30;4.10;;;13.30;99.90;;;12.13;100.00;102328.22;5033178;28;20036;-76
2021/08/14 03:12:33;;;;;;;25.23;4.43;;;13.30;99.90;;;12.11;100.00;102396.88;5032560;28;20538;-76
2021/08/14 03:14:59;;;;;;;23.90;3.72;;;13.30;99.90;;;12.05;100.00;102368.91;5032497;28;20055;-76
2021/08/14 03:17:25;;;;;;;22.48;4.35;;;13.30;99.90;;;12.08;100.00;102418.97;5033020;28;20116;-75
2021/08/14 03:19:51;;;;;;;19.77;3.47;;;13.30;99.90;;;12.01;100.00;102396.28;5030510;28;20033;-76
2021/08/14 03:22:17;;;;;;;16.13;3.63;;;13.20;99.90;;;11.95;100.00;102438.69;5034026;28;20725;-76
2021/08/14 03:24:43;;;;;;;23.38;3.97;;;13.20;99.90;;;11.90;100.00;102472.25;5032971;28;20045;-78
2021/08/14 03:27:09;;;;;;;22.02;4.13;;;13.20;99.90;;;11.95;100.00;102472.13;5032936;28;20497;-76
2021/08/14 03:29:35;;;;;;;15.48;3.72;;;13.20;99.90;;;11.98;100.00;102488.75;5007571;28;20028;-76
2021/08/14 03:32:01;;;;;;;18.15;3.72;;;13.20;99.90;;;12.02;100.00;102508.88;5021377;28;20025;-76
2021/08/14 03:34:27;;;;;;;22.75;3.88;;;13.20;99.90;;;12.02;100.00;102580.16;5033702;28;20025;-75
2021/08/14 03:36:53;;;;;;;22.10;4.55;;;13.20;99.90;;;12.08;100.00;102507.88;5032351;28;20489;-75
2021/08/14 03:39:19;;;;;;;23.27;4.38;;;13.20;99.90;;;12.03;100.00;102456.94;5032997;28;20469;-76
2021/08/14 03:41:45;;;;;;;21.08;4.82;;;13.20;99.90;;;12.03;100.00;102460.47;5033555;28;20036;-75
2021/08/14 03:44:11;;;;;;;27.42;4.70;;;13.20;99.90;;;12.03;100.00;102452.56;5031579;28;20030;-76
2021/08/14 03:46:37;;;;;;;21.80;3.85;;;13.20;99.90;;;12.02;100.00;102466.66;5033246;28;20489;-75
2021/08/14 03:49:03;;;;;;;24.55;4.85;;;13.20;99.90;;;12.07;100.00;102459.50;5022754;28;20025;-76
2021/08/14 03:51:29;;;;;;;27.38;4.70;;;13.30;99.90;;;12.05;100.00;102450.75;5029208;28;20037;-75
2021/08/14 03:53:55;;;;;;;23.50;4.47;;;13.20;99.90;;;12.08;100.00;102463.84;5030682;28;20052;-76
2021/08/14 03:56:21;;;;;;;22.10;4.20;;;13.30;99.90;;;12.05;100.00;102444.56;5030133;28;20049;-76
2021/08/14 03:58:47;;;;;;;26.70;4.50;;;13.20;99.90;;;12.05;100.00;102439.28;5012535;28;20021;-75
2021/08/14 04:01:13;;;;;;;24.13;5.00;;;13.30;99.90;;;12.11;100.00;102428.56;5033518;28;21652;-76
2021/08/14 04:03:39;;;;;;;25.45;4.25;;;13.30;99.90;;;12.12;100.00;102448.81;5033028;28;20025;-76
2021/08/14 04:06:05;;;;;;;25.50;4.88;;;13.30;99.90;;;12.10;100.00;102471.75;5033076;28;20036;-76
2021/08/14 04:08:31;;;;;;;23.25;4.40;;;13.30;99.90;;;12.12;100.00;102514.81;5031818;28;20190;-76
2021/08/14 04:10:57;;;;;;;21.30;4.13;;;13.30;99.90;;;12.20;100.00;102546.31;5031800;28;20037;-76
2021/08/14 04:13:23;;;;;;;26.17;4.43;;;13.40;99.90;;;12.21;100.00;102540.13;5033127;28;20032;-75
2021/08/14 04:15:49;;;;;;;23.90;4.50;;;13.40;99.90;;;12.22;100.00;102553.28;5030046;28;20124;-75
2021/08/14 04:18:14;;;;;;;29.02;4.93;;;13.40;99.90;;;12.16;100.00;102565.78;5048816;28;20546;-75
2021/08/14 04:20:40;;;;;;;26.90;5.25;;;13.30;99.90;;;12.16;100.00;102687.25;5035081;28;20038;-76
2021/08/14 04:23:06;;;;;;;28.98;4.45;;;13.30;99.90;;;12.18;100.00;102651.13;5014841;28;20021;-76
2021/08/14 04:25:32;;;;;;;14.40;4.20;;;13.40;99.90;;;12.23;100.00;102715.28;5015501;28;20070;-76
2021/08/14 04:27:58;;;;;;;22.00;5.00;;;13.40;99.90;;;12.30;100.00;102775.84;5030494;28;20033;-76
2021/08/14 04:30:24;;;;;;;39.03;5.60;;;13.50;99.90;;;12.41;100.00;102729.84;5032373;28;20120;-76
2021/08/14 04:32:51;;;;;;;23.33;4.20;;;13.60;99.90;;;12.46;100.00;102620.53;5030338;28;20039;-76
2021/08/14 04:35:18;;;;;;;27.05;4.95;;;13.60;99.90;;;12.52;100.00;102633.56;5031152;28;20036;-76
2021/08/14 04:37:44;;;;;;;17.10;4.22;;;13.70;99.90;;;12.60;100.00;102596.38;5032167;28;20500;-76
2021/08/14 04:40:14;;;;;;;32.03;4.38;;;13.80;99.90;;;12.68;100.00;102605.00;5031525;28;20025;-76
2021/08/14 04:42:42;;;;;;;26.75;7.00;;;13.80;99.90;;;12.80;100.00;102624.09;5014246;28;20080;-76
2021/08/14 04:45:10;;;;;;;25.83;4.25;;;13.90;99.90;;;12.88;100.00;102652.06;5027243;28;20058;-75
2021/08/14 04:47:37;;;;;;;28.73;4.40;;;14.00;99.90;;;12.92;100.00;102584.13;5023422;28;20055;-76
2021/08/14 04:50:07;;;;;;;17.98;4.00;;;14.10;99.90;;;13.03;100.00;102682.53;5013719;28;20013;-75
2021/08/14 04:52:34;;;;;;;16.48;4.18;;;14.20;99.90;;;13.17;100.00;102690.09;5032194;28;20366;-76
2021/08/14 04:55:00;;;;;;;19.27;4.63;;;14.30;99.90;;;13.28;100.00;102640.47;5030042;28;20091;-75
2021/08/14 04:57:27;;;;;;;25.55;3.88;;;14.40;99.90;;;13.38;100.00;102608.47;5014686;28;20017;-75
2021/08/14 04:59:53;;;;;;;20.58;4.65;;;14.50;99.90;;;13.46;100.00;102570.28;5029917;28;20018;-75
2021/08/14 05:02:19;;;;;;;27.58;3.85;;;14.70;99.90;;;13.85;100.00;102615.00;5031719;28;20021;-75
2021/08/14 05:04:45;;;;;;;25.48;3.63;;;15.00;99.90;;;14.19;99.27;102616.63;5031417;28;20029;-76
2021/08/14 05:07:11;;;;;;;11.60;3.08;;;15.60;99.90;;;14.92;95.59;102479.81;5029948;28;20045;-76
2021/08/14 05:09:39;;;;;;;21.33;3.30;;;15.90;99.90;;;14.85;93.40;102450.03;5031757;28;20497;-79
2021/08/14 05:12:07;;;;;;;30.58;3.90;;;15.80;99.90;;;14.75;93.89;102440.66;5063366;28;20430;-75
2021/08/14 05:14:34;;;;;;;21.10;3.20;;;15.70;99.90;;;14.72;94.62;102435.50;5031537;28;20029;-76
2021/08/14 05:17:01;;;;;;;16.52;3.72;;;15.80;99.90;;;14.79;94.57;102444.09;5030643;28;20052;-75
2021/08/14 05:19:27;;;;;;;29.88;5.00;;;15.80;99.90;;;14.72;95.01;102448.75;5014314;28;20056;-76
2021/08/14 05:21:53;;;;;;;20.98;4.18;;;15.70;99.90;;;14.62;95.27;102424.38;5029854;28;20573;-76
2021/08/14 05:24:18;;;;;;;23.02;4.20;;;15.60;99.90;;;14.68;95.98;102431.22;5005850;28;20026;-76
2021/08/14 05:26:44;;;;;;;25.63;4.15;;;15.60;99.90;;;14.62;96.25;102400.50;5013792;28;20344;-75
2021/08/14 05:29:10;;;;;;;22.73;3.40;;;15.70;99.90;;;14.70;96.25;102390.47;5029029;28;20388;-75
2021/08/14 05:31:36;;;;;;;23.20;3.95;;;15.70;99.90;;;14.76;96.20;102389.38;5031456;28;20556;-76
2021/08/14 05:34:04;;;;;;;19.60;3.50;;;15.80;99.90;;;14.85;95.65;102435.91;5029812;28;20500;-75
2021/08/14 05:36:32;;;;;;;24.35;3.53;;;15.90;99.90;;;14.88;95.23;102394.22;5031035;28;20029;-75
2021/08/14 05:38:59;;;;;;;18.02;3.50;;;15.90;99.90;;;14.93;95.09;102429.38;5031287;28;20063;-76
2021/08/14 05:41:25;;;;;;;18.02;3.30;;;15.90;99.90;;;14.91;94.55;102410.00;5029834;28;20025;-75
2021/08/14 05:43:51;;;;;;;16.67;3.53;;;15.80;99.90;;;14.91;94.49;102433.88;5013827;28;20625;-75
2021/08/14 05:46:17;;;;;;;21.10;3.78;;;15.90;99.90;;;14.97;94.84;102430.16;5029655;28;20064;-76
2021/08/14 05:48:43;;;;;;;20.90;3.78;;;16.00;99.90;;;15.03;94.54;102392.78;5031302;28;20044;-76
2021/08/14 05:51:13;;;;;;;22.80;3.55;;;16.10;99.90;;;15.15;93.42;102410.84;5028811;28;20022;-75
2021/08/14 05:53:39;;;;;;;22.25;4.00;;;16.10;99.90;;;15.21;92.96;102419.50;5013950;28;20041;-76
2021/08/14 05:56:06;;;;;;;23.27;3.78;;;16.20;99.90;;;15.27;93.13;102412.19;5029004;28;20040;-75
2021/08/14 05:58:32;;;;;;;29.52;3.95;;;16.30;99.90;;;15.45;91.59;102425.63;5031110;28;20029;-76
2021/08/14 06:00:58;;;;;;;16.27;3.70;;;16.60;99.90;;;15.83;90.04;102458.63;5045717;28;20037;-76
2021/08/14 06:03:24;;;;;;;19.75;3.33;;;16.80;99.90;;;16.10;89.13;102488.50;5029543;28;20388;-76
2021/08/14 06:05:50;;;;;;;12.98;3.00;;;16.80;99.90;;;16.44;87.95;102503.00;5031231;28;20055;-75
2021/08/14 06:08:16;;;;;;;19.10;3.47;;;17.80;99.90;;;17.50;82.24;102583.47;5046146;28;20476;-75
2021/08/14 06:10:42;;;;;;;21.25;3.22;;;18.10;99.90;;;17.39;82.78;102546.69;5029700;28;20021;-75
2021/08/14 06:13:08;;;;;;;17.88;2.85;;;18.30;99.90;;;17.52;80.41;102536.31;5004651;28;20075;-75
2021/08/14 06:15:34;;;;;;;24.58;4.45;;;18.30;99.90;;;17.30;81.26;102475.22;5028555;28;20393;-75
2021/08/14 06:18:00;;;;;;;24.10;4.25;;;17.90;99.90;;;17.01;83.04;102463.25;5030664;28;20100;-76
2021/08/14 06:20:27;;;;;;;18.25;3.38;;;17.80;99.90;;;17.05;83.00;102472.84;5012644;28;20042;-76
2021/08/14 06:22:53;;;;;;;18.42;3.05;;;18.10;99.90;;;17.41;81.28;102504.00;5029647;28;20025;-75
2021/08/14 06:25:19;;;;;;;20.88;3.55;;;18.20;99.90;;;17.59;80.74;102513.78;5029782;28;20053;-76
2021/08/14 06:27:45;;;;;;;14.55;2.85;;;18.60;99.90;;;18.15;77.79;102551.94;5029603;28;20044;-75
2021/08/14 06:30:14;;;;;;;22.77;3.22;;;18.80;99.90;;;18.15;79.07;102535.97;5018361;28;20086;-75
2021/08/14 06:32:40;;;;;;;18.45;3.42;;;19.00;99.90;;;18.41;77.11;102573.78;5036346;28;20051;-76
2021/08/14 06:35:07;;;;;;;19.40;3.20;;;19.00;99.90;;;18.26;76.68;102519.41;5012226;28;20481;-76
2021/08/14 06:37:43;;;;;;;18.08;3.13;;;18.80;99.90;;;17.87;78.43;102467.16;5005138;28;20028;-75
2021/08/14 06:40:12;;;;;;;20.95;3.00;;;18.40;99.90;;;17.71;79.46;102453.72;5009197;28;20421;-75
2021/08/14 06:42:39;;;;;;;10.73;2.90;;;18.50;99.90;;;17.78;78.83;102454.28;5030160;28;20021;-75
2021/08/14 06:45:07;;;;;;;18.30;3.47;;;18.60;99.90;;;18.22;76.83;102505.38;5012472;28;20036;-75
2021/08/14 06:47:33;;;;;;;19.75;3.00;;;18.80;99.90;;;18.21;76.41;102478.81;5029599;28;20032;-75
2021/08/14 06:49:59;;;;;;;19.92;3.30;;;18.50;99.90;;;17.70;77.31;102422.69;5019711;28;20104;-75
2021/08/14 06:52:25;;;;;;;17.17;3.42;;;18.40;99.90;;;17.72;78.46;102431.47;5029948;28;20037;-75
2021/08/14 06:54:51;;;;;;;19.25;3.10;;;18.90;99.90;;;18.97;74.26;102574.50;5028074;28;20025;-75
2021/08/14 06:57:17;;;;;;;19.85;3.35;;;19.80;99.90;;;20.05;70.02;102661.25;5030193;28;20041;-75
2021/08/14 06:59:43;;;;;;;17.38;3.20;;;20.80;99.90;;;21.21;65.07;102706.31;5028962;28;20041;-75
2021/08/14 07:02:09;;;;;;;23.00;3.10;;;21.50;99.90;;;21.49;62.26;102685.91;5028645;28;20021;-76
2021/08/14 07:04:38;;;;;;;20.95;2.88;;;21.40;99.90;;;20.87;64.14;102544.13;5029152;28;20025;-75
2021/08/14 07:07:04;;;;;;;20.88;3.25;;;21.30;99.90;;;20.84;65.39;102525.56;5044776;28;20068;-75
2021/08/14 07:09:30;;;;;;;12.27;2.65;;;21.00;99.90;;;20.64;65.85;102527.63;5029416;28;20041;-76
2021/08/14 07:11:56;;;;;;;19.77;3.17;;;21.20;99.90;;;21.54;64.99;102618.59;5009689;28;20025;-76
2021/08/14 07:14:22;;;;;;;20.15;2.78;;;21.90;99.90;;;22.44;60.20;102678.94;5019399;28;20025;-75
2021/08/14 07:16:48;;;;;;;15.85;3.08;;;22.20;99.90;;;21.95;61.23;102599.00;5009057;28;20037;-76
2021/08/14 07:19:14;;;;;;;19.50;3.42;;;21.90;99.90;;;21.36;62.15;102570.53;5028340;28;20036;-75
2021/08/14 07:21:40;;;;;;;21.00;3.20;;;21.10;99.90;;;20.57;63.88;102448.69;5035280;28;20104;-75
2021/08/14 07:24:06;;;;;;;18.80;3.72;;;20.60;99.90;;;20.27;66.33;102420.16;5027144;28;20147;-76
2021/08/14 07:26:32;;;;;;;21.13;2.85;;;20.70;99.90;;;20.96;64.57;102487.31;5042431;28;20045;-76
2021/08/14 07:28:57;;;;;;;21.10;3.28;;;21.50;99.90;;;21.99;60.14;102571.88;5012984;28;20037;-75
2021/08/14 07:31:23;;;;;;;22.65;3.20;;;22.00;99.90;;;21.94;59.68;102536.44;5015704;28;20048;-75
2021/08/14 07:33:49;;;;;;;21.17;2.78;;;21.80;99.90;;;21.78;61.35;102508.91;5026245;28;20127;-75
2021/08/14 07:36:15;;;;;;;16.88;3.25;;;21.60;99.90;;;21.88;62.10;102524.31;5018597;28;20056;-75
2021/08/14 07:38:41;;;;;;;15.27;3.03;;;22.30;99.90;;;22.67;58.51;102584.31;5032170;28;20053;-74
2021/08/14 07:41:12;;;;;;;11.95;2.72;;;22.50;99.90;;;22.84;58.91;102569.72;5035071;28;20036;-82
2021/08/14 07:43:38;;;;;;;18.10;3.38;;;22.70;99.90;;;23.03;57.98;102571.16;5013025;28;20052;-75
2021/08/14 07:46:04;;;;;;;16.27;3.00;;;22.70;99.90;;;22.89;57.32;102547.91;5007370;28;20404;-76
2021/08/14 07:48:30;;;;;;;18.80;3.45;;;22.70;99.90;;;22.64;58.43;102495.06;5020163;28;20036;-75
2021/08/14 07:50:56;;;;;;;13.90;2.88;;;22.60;99.90;;;22.26;58.03;102440.38;5033654;28;20033;-75
2021/08/14 07:53:27;;;;;;;16.58;2.95;;;22.10;99.90;;;21.61;59.88;102370.66;5017815;28;20029;-76
2021/08/14 07:55:53;;;;;;;14.75;3.13;;;21.70;99.90;;;21.18;59.95;102331.47;4983280;28;20127;-75
2021/08/14 07:58:19;;;;;;;18.83;3.78;;;21.20;99.90;;;20.67;62.51;102305.31;5014390;28;20043;-76
2021/08/14 08:00:45;;;;;;;23.85;3.28;;;21.10;99.90;;;20.53;63.04;102286.56;5041255;28;20028;-75
2021/08/14 08:03:11;;;;;;;17.13;2.75;;;21.00;99.90;;;20.51;61.82;102288.50;5023430;28;20021;-76
2021/08/14 08:05:38;;;;;;;15.63;2.53;;;21.00;99.90;;;20.41;63.39;102271.31;5032920;28;21021;-75
2021/08/14 08:08:06;;;;;;;15.23;2.75;;;21.00;99.90;;;20.79;61.77;102332.25;5032087;28;20275;-76
2021/08/14 08:10:34;;;;;;;12.98;2.40;;;21.50;99.90;;;21.57;62.10;102398.63;5014128;28;20029;-76
2021/08/14 08:13:01;;;;;;;16.35;2.50;;;21.90;99.90;;;21.89;57.79;102410.69;5014889;28;20041;-76
2021/08/14 08:15:28;;;;;;;15.10;2.40;;;22.10;99.90;;;22.01;57.10;102432.28;5024536;28;20022;-76
2021/08/14 08:17:57;;;;;;;12.20;2.53;;;22.20;99.90;;;22.16;57.94;102436.63;5005927;28;20044;-76
2021/08/14 08:20:23;;;;;;;12.35;2.20;;;22.80;99.90;;;23.42;54.66;102539.72;5010690;28;20485;-77
2021/08/14 08:22:49;;;;;;;15.32;3.28;;;23.10;99.90;;;22.65;53.79;102409.03;5011764;28;20042;-76
2021/08/14 08:25:17;;;;;;;12.55;2.38;;;22.70;99.90;;;22.35;56.36;102366.44;5037706;28;20037;-76
2021/08/14 08:27:48;;;;;;;18.13;3.15;;;22.40;99.90;;;22.04;56.24;102324.78;5041318;28;20033;-76
2021/08/14 08:30:19;;;;;;;15.23;3.10;;;22.60;99.90;;;22.37;57.24;102363.66;4994183;28;20199;-77
2021/08/14 08:32:46;;;;;;;16.92;2.30;;;22.80;99.90;;;22.79;56.92;102408.06;5016158;28;20408;-76
2021/08/14 08:35:13;;;;;;;12.70;2.50;;;23.10;99.90;;;23.02;53.95;102435.09;5022762;28;20414;-76
2021/08/14 08:37:40;;;;;;;19.48;3.10;;;23.20;99.90;;;22.86;55.91;102384.31;5022084;28;20120;-76
2021/08/14 08:40:09;;;;;;;14.45;2.85;;;23.10;99.90;;;22.97;56.06;102411.22;5022958;28;20017;-77
2021/08/14 08:42:36;;;;;;;12.73;2.13;;;23.30;99.90;;;22.94;52.63;102366.66;5044492;28;20032;-77
2021/08/14 08:45:04;;;;;;;14.57;2.40;;;23.20;99.90;;;22.83;54.27;102333.47;5006986;28;20028;-76
2021/08/14 08:47:36;;;;;;;13.27;2.80;;;23.30;99.90;;;22.69;53.62;102303.13;5029916;28;20037;-77
2021/08/14 08:50:06;;;;;;;17.38;2.53;;;22.90;99.90;;;22.17;56.59;102312.22;5005191;28;20552;-77
2021/08/14 08:52:31;;;;;;;13.82;2.97;;;22.20;99.90;;;21.53;57.89;102218.38;5006933;28;20452;-76
2021/08/14 08:55:00;;;;;;;16.95;2.67;;;21.90;99.90;;;21.43;57.91;102194.06;5027633;28;20041;-77
2021/08/14 08:57:26;;;;;;;11.32;2.63;;;22.30;99.90;;;21.99;57.05;102267.94;5018907;28;20036;-77
2021/08/14 08:59:53;;;;;;;13.07;2.08;;;22.50;99.90;;;22.08;55.00;102267.28;4989623;28;20040;-77
2021/08/14 09:02:52;;;;;;;13.68;2.63;;;22.70;99.90;;;22.38;54.24;102282.19;5000343;28;20122;-77
2021/08/14 09:06:06;;;;;;;14.45;2.65;;;23.10;99.90;;;22.82;54.29;102312.97;5001236;28;20037;-76
2021/08/14 09:08:33;;;;;;;15.55;2.20;;;23.20;99.90;;;22.92;53.90;102319.41;4985358;28;20423;-76
2021/08/14 09:11:39;;;;;;;9.80;2.42;;;23.40;99.90;;;22.93;53.17;102292.41;4991271;28;20535;-76
2021/08/14 09:14:33;;;;;;;14.63;1.92;;;23.50;99.90;;;22.48;53.47;102378.06;4980426;28;20032;-75
2021/08/14 09:17:08;;;;;;;13.30;2.92;;;23.00;99.90;;;22.38;52.44;102311.72;4995194;28;21175;-76
2021/08/14 09:20:33;;;;;;;12.60;2.30;;;22.90;99.90;;;22.66;51.16;102306.06;5010612;28;20041;-75
2021/08/14 09:24:06;;;;;;;17.27;2.15;;;23.50;99.90;;;22.96;53.57;102290.47;4993111;28;20056;-76
2021/08/14 09:26:47;;;;;;;13.75;2.30;;;23.10;99.90;;;22.17;51.21;102186.16;4995886;28;20044;-76
2021/08/14 09:29:44;;;;;;;11.48;1.85;;;22.60;99.90;;;21.96;54.01;102179.66;4995112;28;20036;-77
2021/08/14 09:32:38;;;;;;;11.85;2.47;;;22.40;99.90;;;21.78;55.59;102155.03;4991812;28;20167;-76
2021/08/14 09:35:39;;;;;;;16.05;2.50;;;22.30;99.90;;;21.95;54.07;102189.53;4977086;28;20033;-78
2021/08/14 09:38:19;;;;;;;11.27;2.35;;;22.60;99.90;;;22.12;53.61;102180.28;4986544;28;20420;-75
2021/08/14 09:41:32;;;;;;;16.27;2.78;;;22.90;99.90;;;22.72;55.42;102234.91;4987053;28;20834;-75
2021/08/14 09:44:50;;;;;;;9.05;2.30;;;23.10;99.90;;;22.68;51.29;102207.47;4997565;28;20041;-76
2021/08/14 09:48:54;;;;;;;7.65;1.85;;;23.10;99.90;;;22.71;50.44;102203.69;4984946;28;20528;-75
2021/08/14 09:51:39;;;;;;;14.55;2.42;;;23.10;99.90;;;22.73;52.74;102191.00;5003634;28;20075;-76
2021/08/14 09:55:14;;;;;;;12.18;2.78;;;23.00;99.90;;;22.13;51.17;102114.91;4969269;28;20030;-76
2021/08/14 09:59:00;;;;;;;7.10;1.98;;;22.80;99.90;;;22.87;56.01;102181.91;5030773;28;20128;-77
2021/08/14 10:02:06;;;;;;;14.13;2.28;;;23.60;99.90;;;23.43;51.02;102222.38;4995403;28;20032;-76
2021/08/14 10:04:37;;;;;;;13.07;2.30;;;23.80;99.90;;;23.39;47.56;102202.13;4977705;28;20087;-76
2021/08/14 10:07:53;;;;;;;11.32;2.53;;;23.60;99.90;;;23.03;47.16;102141.34;4977521;28;20590;-77
2021/08/14 10:11:21;;;;;;;12.77;2.13;;;23.60;99.90;;;23.20;46.16;102146.25;4989229;28;20037;-77
2021/08/14 10:13:51;;;;;;;10.63;2.10;;;23.70;99.90;;;23.19;48.33;102135.63;4983343;28;20032;-76
2021/08/14 10:16:42;;;;;;;10.43;2.10;;;23.70;99.90;;;23.54;49.51;102165.09;4984268;28;20067;-76
2021/08/14 10:19:35;;;;;;;8.93;2.55;;;23.80;99.90;;;23.52;48.77;102141.03;4974415;28;20025;-76